D51 weather

Clarence Aerodrome
Buffalo, New York, United States

Public forecast

Using degrees Fahrenheit for public forecast. Weather courtesy of forecast.io.

Closest aviation weather report (METAR) to Clarence Aerodrome

Closest report is Buffalo Niagara International Airport, 7.9 nm (14.6 km) SSW. Retrieved 2019/10/16 05:54 UTC (31 minutes ago):

KBUF 160554Z 15010KT 10SM FEW075 BKN090 BKN200 BKN280 11/05 A2975 RMK AO2 SLP076 T01110050 10111 20094 56035

Closest aviation forecast (TAF) to Clarence Aerodrome

Closest forecast is Buffalo Niagara International Airport, 7.9 nm (14.6 km) SSW. Retrieved 2019/10/16 06:45 UTC (0 seconds ago):

TAF KBUF 160542Z 1606/1706 15009KT P6SM SCT070 WS020/20035KT FM160800 17013G19KT P6SM BKN060 FM161200 17012G19KT P6SM OVC035 FM161300 18013G20KT 6SM -SHRA BR OVC025 FM161400 21013G21KT 4SM RA OVC015 FM162000 22012G18KT 6SM -SHRA BR OVC020 FM170300 25010G16KT P6SM VCSH OVC015